Time;durP1;ratioP1;P1;durP2;ratioP2;P2;SDS_P1;SDS_P2;PMS_P1;PMS_P2;Temp;Humidity;BMP_temperature;BMP_pressure;BME280_temperature;BME280_humidity;BME280_pressure;Samples;Min_cycle;Max_cycle;Signal;HPM_P1;HPM_P2
2021/04/03 00:01:46;;;;;;;19.47;3.07;;;;;;;;;;5017536;28;20224;-71
2021/04/03 00:04:12;;;;;;;19.33;2.70;;;;;;;;;;5026247;28;20704;-70
2021/04/03 00:06:37;;;;;;;22.33;2.87;;;;;;;;;;5015694;28;20198;-71
2021/04/03 00:09:03;;;;;;;22.67;2.67;;;;;;;;;;5024130;28;20268;-70
2021/04/03 00:11:28;;;;;;;20.47;3.53;;;;;;;;;;5015822;28;20193;-70
2021/04/03 00:13:53;;;;;;;20.03;2.70;;;;;;;;;;5026825;28;20209;-70
2021/04/03 00:16:19;;;;;;;18.00;3.43;;;;;;;;;;5016565;28;20391;-70
2021/04/03 00:18:44;;;;;;;22.33;2.33;;;;;;;;;;5025068;28;20272;-71
2021/04/03 00:21:10;;;;;;;20.93;2.47;;;;;;;;;;5015780;28;20213;-71
2021/04/03 00:23:35;;;;;;;20.53;3.37;;;;;;;;;;5024231;28;20186;-71
2021/04/03 00:26:00;;;;;;;20.70;2.93;;;;;;;;;;5026099;28;20194;-71
2021/04/03 00:28:26;;;;;;;18.30;2.60;;;;;;;;;;5015969;28;20208;-71
2021/04/03 00:30:51;;;;;;;18.07;2.20;;;;;;;;;;5026488;28;20215;-71
2021/04/03 00:33:16;;;;;;;16.73;2.53;;;;;;;;;;5016945;28;20213;-71
2021/04/03 00:35:44;;;;;;;17.67;3.87;;;;;;;;;;5024519;28;20610;-71
2021/04/03 00:38:10;;;;;;;21.70;2.93;;;;;;;;;;5017805;28;20205;-70
2021/04/03 00:40:44;;;;;;;23.13;2.73;;;;;;;;;;5022803;28;20209;-71
2021/04/03 00:43:12;;;;;;;23.13;4.00;;;;;;;;;;5016520;28;20827;-70
2021/04/03 00:45:38;;;;;;;17.60;3.00;;;;;;;;;;5022354;28;20196;-70
2021/04/03 00:48:05;;;;;;;20.43;3.10;;;;;;;;;;5016139;28;20285;-69
2021/04/03 00:50:34;;;;;;;20.77;2.93;;;;;;;;;;5025234;28;20257;-69
2021/04/03 00:53:00;;;;;;;17.80;2.80;;;;;;;;;;5018322;28;20185;-69
2021/04/03 00:55:25;;;;;;;19.23;4.03;;;;;;;;;;5024970;28;20518;-70
2021/04/03 00:57:51;;;;;;;19.27;3.00;;;;;;;;;;5025965;28;20186;-70
2021/04/03 01:00:17;;;;;;;18.20;3.80;;;;;;;;;;5014847;28;20200;-70
2021/04/03 01:02:43;;;;;;;25.53;3.47;;;;;;;;;;5024633;28;20182;-70
2021/04/03 01:05:22;;;;;;;16.33;3.10;;;;;;;;;;5014566;28;20193;-70
2021/04/03 01:07:48;;;;;;;18.47;2.57;;;;;;;;;;5025586;28;20185;-70
2021/04/03 01:10:16;;;;;;;19.50;2.90;;;;;;;;;;5016050;28;20297;-70
2021/04/03 01:12:57;;;;;;;22.10;3.03;;;;;;;;;;5025183;28;20184;-70
2021/04/03 01:15:44;;;;;;;22.30;3.00;;;;;;;;;;5017517;28;20193;-71
2021/04/03 01:18:28;;;;;;;22.77;3.03;;;;;;;;;;5025627;28;20220;-71
2021/04/03 01:21:23;;;;;;;25.77;3.37;;;;;;;;;;5016722;28;20263;-70
2021/04/03 01:24:06;;;;;;;24.17;3.23;;;;;;;;;;5028141;28;20279;-70
2021/04/03 01:26:46;;;;;;;18.97;3.30;;;;;;;;;;5016985;28;20190;-71
2021/04/03 01:29:43;;;;;;;24.50;3.03;;;;;;;;;;5024389;28;20661;-71
2021/04/03 01:32:10;;;;;;;18.40;2.57;;;;;;;;;;5015622;28;20208;-71
2021/04/03 01:34:40;;;;;;;16.97;2.70;;;;;;;;;;5026213;28;20194;-71
2021/04/03 01:37:10;;;;;;;22.70;2.90;;;;;;;;;;5022688;28;20186;-71
2021/04/03 01:39:36;;;;;;;20.77;2.70;;;;;;;;;;5027742;28;20198;-71
2021/04/03 01:42:07;;;;;;;22.40;3.03;;;;;;;;;;5020218;28;20260;-71
2021/04/03 01:44:47;;;;;;;26.80;3.10;;;;;;;;;;5028466;28;20292;-71
2021/04/03 01:47:15;;;;;;;32.47;4.90;;;;;;;;;;5020070;28;20194;-71
2021/04/03 01:49:42;;;;;;;16.03;2.60;;;;;;;;;;5025776;28;20310;-70
2021/04/03 01:52:07;;;;;;;20.27;3.07;;;;;;;;;;5020386;28;20281;-70
2021/04/03 01:54:33;;;;;;;26.03;2.60;;;;;;;;;;5026919;28;20281;-70
2021/04/03 01:57:00;;;;;;;26.33;3.30;;;;;;;;;;5019382;28;20193;-70
2021/04/03 01:59:26;;;;;;;27.97;3.93;;;;;;;;;;5026760;28;20276;-70
2021/04/03 02:01:54;;;;;;;15.20;3.00;;;;;;;;;;5019932;28;20266;-70
2021/04/03 02:04:21;;;;;;;20.90;3.20;;;;;;;;;;5027055;28;20225;-69
2021/04/03 02:06:47;;;;;;;19.73;2.83;;;;;;;;;;5023110;28;20185;-74
2021/04/03 02:09:15;;;;;;;24.83;3.20;;;;;;;;;;5024347;28;20207;-70
2021/04/03 02:11:47;;;;;;;24.50;3.33;;;;;;;;;;5026401;28;20264;-70
2021/04/03 02:14:14;;;;;;;20.70;3.30;;;;;;;;;;5016317;28;20240;-70
2021/04/03 02:16:40;;;;;;;20.00;3.07;;;;;;;;;;5025630;28;20210;-70
2021/04/03 02:19:09;;;;;;;24.03;2.97;;;;;;;;;;5014752;28;20197;-70
2021/04/03 02:21:35;;;;;;;23.90;3.87;;;;;;;;;;5029215;28;20210;-71
2021/04/03 02:24:02;;;;;;;28.53;3.93;;;;;;;;;;5014962;28;21490;-70
2021/04/03 02:26:35;;;;;;;17.57;2.57;;;;;;;;;;5026560;28;20173;-70
2021/04/03 02:29:01;;;;;;;28.10;3.80;;;;;;;;;;5018461;28;20209;-70
2021/04/03 02:31:28;;;;;;;25.63;3.73;;;;;;;;;;5027237;28;20190;-70
2021/04/03 02:33:53;;;;;;;22.60;3.00;;;;;;;;;;5017003;28;20186;-70
2021/04/03 02:36:19;;;;;;;35.67;4.30;;;;;;;;;;5026351;28;20185;-71
2021/04/03 02:38:49;;;;;;;24.13;3.90;;;;;;;;;;5016643;28;20271;-71
2021/04/03 02:41:20;;;;;;;22.77;3.17;;;;;;;;;;5027622;28;20581;-71
2021/04/03 02:44:00;;;;;;;21.77;3.10;;;;;;;;;;5017716;28;20212;-70
2021/04/03 02:46:32;;;;;;;27.63;4.93;;;;;;;;;;5025767;28;20187;-71
2021/04/03 02:49:02;;;;;;;28.23;3.47;;;;;;;;;;5020582;28;20720;-70
2021/04/03 02:51:32;;;;;;;17.90;3.23;;;;;;;;;;5025740;28;20174;-70
2021/04/03 02:54:00;;;;;;;22.73;2.97;;;;;;;;;;5023668;28;20185;-70
2021/04/03 02:56:28;;;;;;;23.60;3.33;;;;;;;;;;5017287;28;20190;-70
2021/04/03 02:58:55;;;;;;;24.53;3.60;;;;;;;;;;5026309;28;20196;-70
2021/04/03 03:01:22;;;;;;;29.03;3.43;;;;;;;;;;5015868;28;20209;-70
2021/04/03 03:03:49;;;;;;;28.77;4.03;;;;;;;;;;5024157;28;20209;-70
2021/04/03 03:06:15;;;;;;;27.10;4.43;;;;;;;;;;5018036;28;20247;-71
2021/04/03 03:08:41;;;;;;;31.50;3.77;;;;;;;;;;5025398;28;20190;-69
2021/04/03 03:11:08;;;;;;;31.73;3.63;;;;;;;;;;5016219;28;20182;-70
2021/04/03 03:13:34;;;;;;;23.23;3.53;;;;;;;;;;5025807;28;20553;-69
2021/04/03 03:16:02;;;;;;;29.30;3.90;;;;;;;;;;5016279;28;22249;-69
2021/04/03 03:18:29;;;;;;;31.93;3.57;;;;;;;;;;5024799;28;20213;-69
2021/04/03 03:20:55;;;;;;;35.87;5.23;;;;;;;;;;5018360;28;20232;-70
2021/04/03 03:23:21;;;;;;;41.30;5.10;;;;;;;;;;5025130;28;20312;-70
2021/04/03 03:25:46;;;;;;;25.73;3.73;;;;;;;;;;5026123;28;20177;-70
2021/04/03 03:28:12;;;;;;;23.03;3.47;;;;;;;;;;5015837;28;20198;-70
2021/04/03 03:30:37;;;;;;;30.27;4.60;;;;;;;;;;5028121;28;20189;-70
2021/04/03 03:33:03;;;;;;;21.00;3.37;;;;;;;;;;5015092;28;20197;-70
2021/04/03 03:35:28;;;;;;;30.47;3.40;;;;;;;;;;5025438;28;20189;-70
2021/04/03 03:37:55;;;;;;;32.67;3.97;;;;;;;;;;5016200;28;20201;-70
2021/04/03 03:40:20;;;;;;;32.07;4.53;;;;;;;;;;5026549;28;20185;-71
2021/04/03 03:42:46;;;;;;;32.17;4.43;;;;;;;;;;5014809;28;20221;-71
2021/04/03 03:45:13;;;;;;;26.23;4.10;;;;;;;;;;5025264;28;20217;-71
2021/04/03 03:47:39;;;;;;;32.73;4.00;;;;;;;;;;5014574;28;20261;-71
2021/04/03 03:50:06;;;;;;;23.23;3.53;;;;;;;;;;5023185;28;20777;-70
2021/04/03 03:52:31;;;;;;;34.43;4.63;;;;;;;;;;5016248;28;20269;-70
2021/04/03 03:54:57;;;;;;;28.63;4.03;;;;;;;;;;5024970;28;20402;-70
2021/04/03 03:57:22;;;;;;;34.53;4.23;;;;;;;;;;5025797;28;20685;-70
2021/04/03 03:59:47;;;;;;;26.47;3.83;;;;;;;;;;5015722;28;20503;-70
2021/04/03 04:02:13;;;;;;;32.57;4.60;;;;;;;;;;5026417;28;20302;-70
2021/04/03 04:04:38;;;;;;;35.73;5.03;;;;;;;;;;5016888;28;20213;-71
2021/04/03 04:07:04;;;;;;;30.80;4.47;;;;;;;;;;5023305;28;20193;-70
2021/04/03 04:09:30;;;;;;;26.47;4.17;;;;;;;;;;5016455;28;20190;-70
2021/04/03 04:11:55;;;;;;;26.43;4.70;;;;;;;;;;5025025;28;20212;-70
2021/04/03 04:14:21;;;;;;;39.03;6.60;;;;;;;;;;5013801;28;20313;-70
2021/04/03 04:16:46;;;;;;;31.83;5.20;;;;;;;;;;5023137;28;20190;-70
2021/04/03 04:19:11;;;;;;;41.17;4.83;;;;;;;;;;5015415;28;20198;-70
2021/04/03 04:21:37;;;;;;;37.50;5.43;;;;;;;;;;5024117;28;20241;-70
2021/04/03 04:24:03;;;;;;;31.87;4.60;;;;;;;;;;5015921;28;20219;-70
2021/04/03 04:26:28;;;;;;;34.37;4.83;;;;;;;;;;5023955;28;20621;-70
2021/04/03 04:28:53;;;;;;;33.10;5.80;;;;;;;;;;5024501;28;20198;-71
2021/04/03 04:31:19;;;;;;;28.70;4.20;;;;;;;;;;5015968;28;20182;-70
2021/04/03 04:33:44;;;;;;;34.67;4.90;;;;;;;;;;5024618;28;20201;-70
2021/04/03 04:36:09;;;;;;;33.07;5.60;;;;;;;;;;5015429;28;20551;-70
2021/04/03 04:38:35;;;;;;;28.90;5.80;;;;;;;;;;5023100;28;20276;-71
2021/04/03 04:41:00;;;;;;;40.40;6.00;;;;;;;;;;5015632;28;20206;-71
2021/04/03 04:43:25;;;;;;;38.47;5.87;;;;;;;;;;5023340;28;20197;-70
2021/04/03 04:45:52;;;;;;;37.90;5.03;;;;;;;;;;5016793;28;20182;-69
2021/04/03 04:48:18;;;;;;;28.80;5.17;;;;;;;;;;5023841;28;20570;-69
2021/04/03 04:50:43;;;;;;;43.27;6.37;;;;;;;;;;5016071;28;25305;-69
2021/04/03 04:53:09;;;;;;;44.80;5.30;;;;;;;;;;5021505;28;20878;-70
2021/04/03 04:55:34;;;;;;;36.47;4.93;;;;;;;;;;5022399;28;20195;-70
2021/04/03 04:58:00;;;;;;;31.97;5.00;;;;;;;;;;5014292;28;20280;-70
2021/04/03 05:00:26;;;;;;;34.33;4.67;;;;;;;;;;5028610;28;20194;-70
2021/04/03 05:02:51;;;;;;;41.93;6.57;;;;;;;;;;5012565;28;20240;-70
2021/04/03 05:05:16;;;;;;;42.43;5.67;;;;;;;;;;4328298;28;10000749;-70
2021/04/03 05:07:42;;;;;;;40.00;6.70;;;;;;;;;;5011487;28;20653;-70
2021/04/03 05:10:07;;;;;;;46.03;5.60;;;;;;;;;;5026637;28;20652;-70
2021/04/03 05:12:33;;;;;;;43.77;5.43;;;;;;;;;;5019542;28;20194;-70
2021/04/03 05:14:58;;;;;;;41.03;5.50;;;;;;;;;;5027050;28;20178;-70
2021/04/03 05:17:23;;;;;;;34.63;4.50;;;;;;;;;;5018746;28;20700;-70
2021/04/03 05:19:49;;;;;;;41.00;5.60;;;;;;;;;;5026201;28;20271;-70
2021/04/03 05:22:14;;;;;;;35.63;5.07;;;;;;;;;;5017994;28;20224;-70
2021/04/03 05:24:40;;;;;;;38.83;6.43;;;;;;;;;;5027608;28;20193;-70
2021/04/03 05:27:06;;;;;;;35.10;5.83;;;;;;;;;;5025306;28;20193;-70
2021/04/03 05:29:31;;;;;;;34.47;5.17;;;;;;;;;;5018717;28;20188;-70
2021/04/03 05:31:56;;;;;;;37.60;5.50;;;;;;;;;;5024366;28;20188;-70
2021/04/03 05:34:22;;;;;;;48.33;5.50;;;;;;;;;;5018468;28;20656;-70
2021/04/03 05:36:47;;;;;;;57.43;6.30;;;;;;;;;;5027885;28;20216;-70
2021/04/03 05:39:12;;;;;;;39.37;5.97;;;;;;;;;;5017764;28;20224;-70
2021/04/03 05:41:38;;;;;;;44.17;6.80;;;;;;;;;;5025583;28;20301;-70
2021/04/03 05:44:04;;;;;;;47.97;7.23;;;;;;;;;;5017913;28;20229;-70
2021/04/03 05:46:30;;;;;;;35.83;5.93;;;;;;;;;;5025530;28;20203;-71
2021/04/03 05:48:58;;;;;;;35.77;6.10;;;;;;;;;;5018458;28;20725;-70
2021/04/03 05:51:23;;;;;;;36.17;6.83;;;;;;;;;;5027412;28;20276;-71
2021/04/03 05:53:49;;;;;;;40.77;7.10;;;;;;;;;;5024218;28;20289;-70
2021/04/03 05:56:16;;;;;;;43.23;6.40;;;;;;;;;;5026359;28;20580;-70
2021/04/03 05:58:42;;;;;;;46.93;6.27;;;;;;;;;;5031075;28;20193;-70
2021/04/03 06:01:08;;;;;;;42.57;6.67;;;;;;;;;;5020293;28;20360;-69
2021/04/03 06:03:34;;;;;;;41.70;6.43;;;;;;;;;;5027584;28;20291;-71
2021/04/03 06:06:00;;;;;;;47.43;6.53;;;;;;;;;;5022988;28;20591;-70
2021/04/03 06:08:30;;;;;;;45.20;7.50;;;;;;;;;;5030504;28;20181;-70
2021/04/03 06:11:18;;;;;;;35.30;6.53;;;;;;;;;;5021705;28;20190;-70
2021/04/03 06:14:04;;;;;;;39.53;6.37;;;;;;;;;;5033701;28;20300;-70
2021/04/03 06:16:31;;;;;;;40.13;5.43;;;;;;;;;;5020088;28;20193;-70
2021/04/03 06:19:14;;;;;;;41.07;5.70;;;;;;;;;;5027909;28;20595;-70
2021/04/03 06:21:47;;;;;;;47.60;6.37;;;;;;;;;;5017241;28;20305;-71
2021/04/03 06:24:26;;;;;;;40.97;6.30;;;;;;;;;;5024841;28;20653;-71
2021/04/03 06:26:53;;;;;;;49.63;7.97;;;;;;;;;;5014885;28;20614;-70
2021/04/03 06:29:26;;;;;;;33.80;6.03;;;;;;;;;;5025779;28;20185;-71
2021/04/03 06:31:54;;;;;;;43.83;7.87;;;;;;;;;;5016516;28;20200;-70
2021/04/03 06:34:39;;;;;;;34.33;6.77;;;;;;;;;;5027551;28;20740;-70
2021/04/03 06:37:08;;;;;;;35.07;6.10;;;;;;;;;;5013398;28;20297;-70
2021/04/03 06:39:57;;;;;;;34.83;5.30;;;;;;;;;;5026000;28;20186;-70
2021/04/03 06:42:38;;;;;;;42.73;6.87;;;;;;;;;;5019118;28;20201;-70
2021/04/03 06:45:29;;;;;;;43.27;6.40;;;;;;;;;;5025871;28;20185;-70
2021/04/03 06:47:54;;;;;;;49.23;6.93;;;;;;;;;;5018113;28;20177;-71
2021/04/03 06:50:22;;;;;;;46.77;6.53;;;;;;;;;;5023871;28;20685;-71
2021/04/03 06:52:48;;;;;;;40.17;7.10;;;;;;;;;;5015748;28;20339;-70
2021/04/03 06:55:16;;;;;;;38.30;6.47;;;;;;;;;;5024326;28;20190;-70
2021/04/03 06:57:43;;;;;;;34.20;5.70;;;;;;;;;;5018371;28;20193;-70
2021/04/03 07:00:10;;;;;;;30.80;6.30;;;;;;;;;;5026654;28;20612;-70
2021/04/03 07:02:44;;;;;;;37.70;6.60;;;;;;;;;;5015255;28;20209;-70
2021/04/03 07:05:13;;;;;;;37.13;6.57;;;;;;;;;;5023526;28;20269;-71
2021/04/03 07:07:39;;;;;;;41.20;6.67;;;;;;;;;;5023240;28;20273;-69
2021/04/03 07:10:05;;;;;;;30.53;6.13;;;;;;;;;;5016707;28;21620;-70
2021/04/03 07:12:32;;;;;;;36.00;5.07;;;;;;;;;;5021814;28;20248;-69
2021/04/03 07:14:58;;;;;;;32.80;5.40;;;;;;;;;;5017688;28;20200;-70
2021/04/03 07:17:24;;;;;;;34.33;5.23;;;;;;;;;;5026223;28;20198;-69
2021/04/03 07:19:52;;;;;;;29.87;5.63;;;;;;;;;;5016645;28;20197;-70
2021/04/03 07:22:18;;;;;;;31.23;5.53;;;;;;;;;;5024711;28;20205;-69
2021/04/03 07:24:43;;;;;;;29.30;4.70;;;;;;;;;;5018532;28;20633;-71
2021/04/03 07:27:09;;;;;;;35.97;5.43;;;;;;;;;;5023886;28;20228;-71
2021/04/03 07:29:40;;;;;;;38.30;4.87;;;;;;;;;;5019032;28;20247;-70
2021/04/03 07:32:06;;;;;;;29.97;5.00;;;;;;;;;;5024510;28;20182;-70
2021/04/03 07:34:42;;;;;;;39.77;5.57;;;;;;;;;;5018349;28;20563;-70
2021/04/03 07:37:11;;;;;;;30.07;5.23;;;;;;;;;;5025725;28;20192;-70
2021/04/03 07:39:39;;;;;;;33.80;6.40;;;;;;;;;;5020252;28;20840;-70
2021/04/03 07:42:05;;;;;;;26.93;4.97;;;;;;;;;;5026619;28;20225;-70
2021/04/03 07:44:38;;;;;;;33.10;6.40;;;;;;;;;;5026739;28;20239;-70
2021/04/03 07:47:19;;;;;;;33.47;6.23;;;;;;;;;;5024416;28;20493;-70
2021/04/03 07:49:45;;;;;;;31.30;5.17;;;;;;;;;;5025879;28;20552;-70
2021/04/03 07:52:11;;;;;;;34.43;5.57;;;;;;;;;;5031719;28;20198;-70
2021/04/03 07:54:36;;;;;;;38.57;5.40;;;;;;;;;;5027782;28;20217;-70
2021/04/03 07:57:04;;;;;;;31.00;5.30;;;;;;;;;;5018562;28;20190;-71
2021/04/03 07:59:47;;;;;;;27.80;4.80;;;;;;;;;;5028122;28;20182;-71
2021/04/03 08:02:15;;;;;;;35.23;5.83;;;;;;;;;;5017430;28;20651;-70
2021/04/03 08:04:41;;;;;;;29.47;6.07;;;;;;;;;;5029094;28;20283;-70
2021/04/03 08:07:07;;;;;;;31.50;5.63;;;;;;;;;;5018275;28;20193;-70
2021/04/03 08:09:33;;;;;;;22.97;4.67;;;;;;;;;;5026994;28;20236;-71
2021/04/03 08:11:59;;;;;;;29.00;5.40;;;;;;;;;;5018081;28;20221;-70
2021/04/03 08:14:31;;;;;;;31.30;6.13;;;;;;;;;;5025815;28;20654;-70
2021/04/03 08:16:57;;;;;;;24.73;5.37;;;;;;;;;;5019808;28;20196;-69
2021/04/03 08:19:23;;;;;;;25.30;5.90;;;;;;;;;;5025610;28;20185;-70
2021/04/03 08:21:49;;;;;;;25.87;4.97;;;;;;;;;;5018599;28;21951;-70
2021/04/03 08:24:15;;;;;;;26.73;5.10;;;;;;;;;;5025267;28;20730;-70
2021/04/03 08:26:42;;;;;;;27.63;5.03;;;;;;;;;;5023980;28;20190;-70
2021/04/03 08:29:18;;;;;;;35.17;5.63;;;;;;;;;;5013519;28;20182;-70
2021/04/03 08:31:47;;;;;;;25.23;4.97;;;;;;;;;;5025742;28;20177;-72
2021/04/03 08:34:12;;;;;;;29.33;5.17;;;;;;;;;;5016448;28;20216;-71
2021/04/03 08:36:38;;;;;;;31.93;5.70;;;;;;;;;;5027697;28;20728;-71
2021/04/03 08:39:08;;;;;;;25.73;5.53;;;;;;;;;;5017991;28;20221;-71
2021/04/03 08:41:36;;;;;;;30.63;5.33;;;;;;;;;;5026996;28;20252;-70
2021/04/03 08:44:12;;;;;;;36.07;5.10;;;;;;;;;;5014948;28;20199;-70
2021/04/03 08:46:41;;;;;;;33.80;6.70;;;;;;;;;;5025402;28;20242;-70
2021/04/03 08:49:06;;;;;;;36.63;6.80;;;;;;;;;;5017013;28;20220;-70
2021/04/03 08:51:31;;;;;;;34.50;5.83;;;;;;;;;;5025740;28;20228;-70
2021/04/03 08:54:00;;;;;;;31.53;5.83;;;;;;;;;;5015382;28;20189;-69
2021/04/03 08:56:31;;;;;;;30.87;5.73;;;;;;;;;;5025971;28;20182;-69
2021/04/03 08:58:58;;;;;;;33.60;6.37;;;;;;;;;;5015608;28;20265;-70
2021/04/03 09:01:29;;;;;;;26.13;5.73;;;;;;;;;;5025568;28;20404;-74
2021/04/03 09:03:58;;;;;;;34.00;5.50;;;;;;;;;;5015243;28;20957;-70
2021/04/03 09:06:59;;;;;;;29.13;5.40;;;;;;;;;;5023020;28;20185;-70
2021/04/03 09:09:28;;;;;;;31.40;5.87;;;;;;;;;;4973459;28;21617;-70
2021/04/03 09:12:00;;;;;;;32.23;5.93;;;;;;;;;;5019219;28;20198;-70
2021/04/03 09:14:46;;;;;;;31.70;5.00;;;;;;;;;;5018805;28;20271;-69
2021/04/03 09:17:19;;;;;;;36.87;5.53;;;;;;;;;;5029875;28;20197;-71
2021/04/03 09:19:44;;;;;;;29.02;5.03;;;;;;;;;;5016217;28;20632;-70
2021/04/03 09:22:18;;;;;;;33.45;5.95;;;;;;;;;;5028111;28;20235;-70
2021/04/03 09:24:55;;;;;;;28.80;4.75;;;;;;;;;;5025853;28;20299;-70
2021/04/03 09:27:21;;;;;;;26.65;5.03;;;;;;;;;;5021411;28;20182;-70
2021/04/03 09:29:49;;;;;;;32.53;5.43;;;;;;;;;;5024532;28;20275;-70
2021/04/03 09:32:16;;;;;;;32.13;4.97;;;;;;;;;;5017380;28;20501;-70
2021/04/03 09:34:42;;;;;;;24.23;5.40;;;;;;;;;;5024731;28;20204;-70
2021/04/03 09:37:17;;;;;;;30.85;5.50;;;;;;;;;;5017802;28;20198;-70
2021/04/03 09:39:45;;;;;;;36.00;5.68;;;;;;;;;;5022477;28;20505;-70
2021/04/03 09:42:13;;;;;;;33.45;5.55;;;;;;;;;;5015222;28;20213;-70
2021/04/03 09:44:38;;;;;;;27.40;4.97;;;;;;;;;;5023003;28;20186;-70
2021/04/03 09:47:04;;;;;;;24.10;4.82;;;;;;;;;;5017805;28;20205;-70
2021/04/03 09:49:29;;;;;;;25.20;4.93;;;;;;;;;;5024734;28;20238;-70
2021/04/03 09:51:57;;;;;;;21.52;5.28;;;;;;;;;;5016639;28;20632;-70
2021/04/03 09:54:22;;;;;;;22.42;4.35;;;;;;;;;;5023242;28;20798;-70
2021/04/03 09:56:48;;;;;;;20.85;5.25;;;;;;;;;;5022857;28;20205;-70
2021/04/03 09:59:13;;;;;;;30.58;4.60;;;;;;;;;;5029151;28;20208;-70
2021/04/03 10:01:39;;;;;;;24.13;4.97;;;;;;;;;;5031470;28;20926;-70
2021/04/03 10:04:04;;;;;;;21.05;4.43;;;;;;;;;;5019286;28;20210;-70
2021/04/03 10:06:30;;;;;;;23.38;3.97;;;;;;;;;;5027189;28;20240;-68
2021/04/03 10:08:55;;;;;;;28.65;4.68;;;;;;;;;;5022677;28;20193;-69
2021/04/03 10:11:20;;;;;;;26.02;5.40;;;;;;;;;;5029170;28;20197;-69
2021/04/03 10:13:46;;;;;;;22.55;4.03;;;;;;;;;;5019738;28;20200;-70
2021/04/03 10:16:11;;;;;;;25.73;4.45;;;;;;;;;;5027093;28;20216;-70
2021/04/03 10:18:36;;;;;;;23.35;5.47;;;;;;;;;;5020527;28;20208;-70
2021/04/03 10:21:02;;;;;;;25.92;4.15;;;;;;;;;;5030601;28;20293;-70
2021/04/03 10:23:27;;;;;;;30.08;5.43;;;;;;;;;;5017490;28;20185;-70
2021/04/03 10:25:53;;;;;;;20.75;4.55;;;;;;;;;;5025932;28;20193;-70
2021/04/03 10:28:18;;;;;;;22.75;4.57;;;;;;;;;;5020774;28;20325;-70
2021/04/03 10:30:43;;;;;;;21.88;4.30;;;;;;;;;;5029112;28;20659;-70
2021/04/03 10:33:09;;;;;;;18.83;3.95;;;;;;;;;;5026090;28;20177;-70
2021/04/03 10:35:34;;;;;;;27.25;3.95;;;;;;;;;;5019357;28;20696;-70
2021/04/03 10:37:59;;;;;;;18.52;3.83;;;;;;;;;;5029025;28;20186;-70
2021/04/03 10:40:25;;;;;;;19.77;4.28;;;;;;;;;;5018113;28;20278;-70
2021/04/03 10:42:50;;;;;;;24.45;4.55;;;;;;;;;;5026828;28;20279;-70
2021/04/03 10:45:16;;;;;;;17.98;4.28;;;;;;;;;;5019005;28;20451;-70
2021/04/03 10:47:41;;;;;;;22.38;3.65;;;;;;;;;;5024373;28;20289;-70
2021/04/03 10:50:07;;;;;;;21.98;4.18;;;;;;;;;;5018674;28;20237;-71
2021/04/03 10:52:32;;;;;;;26.65;4.60;;;;;;;;;;5028669;28;20175;-71
2021/04/03 10:54:58;;;;;;;19.00;3.55;;;;;;;;;;5019693;28;20266;-70
2021/04/03 10:57:23;;;;;;;20.88;3.70;;;;;;;;;;5026699;28;20620;-70
2021/04/03 10:59:51;;;;;;;19.30;4.13;;;;;;;;;;5029755;28;20258;-70
2021/04/03 11:02:17;;;;;;;18.00;3.80;;;;;;;;;;5020342;28;20268;-70
2021/04/03 11:04:42;;;;;;;19.77;3.70;;;;;;;;;;5026711;28;20236;-70
2021/04/03 11:07:08;;;;;;;17.83;3.08;;;;;;;;;;5015824;28;20224;-70
2021/04/03 11:09:33;;;;;;;20.35;3.80;;;;;;;;;;5027794;28;20190;-70
2021/04/03 11:11:58;;;;;;;20.05;4.68;;;;;;;;;;5019657;28;20269;-70
2021/04/03 11:14:24;;;;;;;25.20;4.88;;;;;;;;;;5027368;28;20650;-70
2021/04/03 11:16:49;;;;;;;22.58;4.38;;;;;;;;;;5018766;28;20292;-70
2021/04/03 11:19:15;;;;;;;18.55;4.20;;;;;;;;;;5027164;28;20213;-70
2021/04/03 11:21:40;;;;;;;22.13;4.25;;;;;;;;;;5020594;28;20209;-70
2021/04/03 11:24:06;;;;;;;17.00;3.90;;;;;;;;;;5029965;28;20192;-70
2021/04/03 11:26:32;;;;;;;21.50;4.60;;;;;;;;;;5018960;28;20201;-70
2021/04/03 11:28:57;;;;;;;24.83;4.72;;;;;;;;;;5029328;28;20182;-70
2021/04/03 11:31:23;;;;;;;18.42;3.97;;;;;;;;;;5029337;28;20217;-70
2021/04/03 11:33:48;;;;;;;16.45;3.75;;;;;;;;;;5021367;28;21031;-70
2021/04/03 11:36:14;;;;;;;14.38;3.50;;;;;;;;;;5027947;28;20641;-70
2021/04/03 11:38:39;;;;;;;13.73;3.58;;;;;;;;;;5019189;28;20200;-70
2021/04/03 11:41:04;;;;;;;17.55;4.93;;;;;;;;;;5026160;28;20696;-69
2021/04/03 11:43:29;;;;;;;16.42;3.70;;;;;;;;;;5018655;28;20320;-70
2021/04/03 11:45:55;;;;;;;20.05;3.72;;;;;;;;;;5023159;28;20284;-69
2021/04/03 11:48:20;;;;;;;15.82;3.53;;;;;;;;;;5017047;28;20202;-70
2021/04/03 11:50:46;;;;;;;14.55;3.10;;;;;;;;;;5027741;28;20751;-70
2021/04/03 11:53:13;;;;;;;16.35;4.10;;;;;;;;;;5014527;28;20588;-76
2021/04/03 11:55:39;;;;;;;17.88;3.90;;;;;;;;;;5024701;28;20645;-69
2021/04/03 11:58:04;;;;;;;18.17;3.85;;;;;;;;;;5015480;28;20195;-69
2021/04/03 12:00:29;;;;;;;19.27;3.67;;;;;;;;;;5020345;28;20661;-70
2021/04/03 12:02:55;;;;;;;18.67;3.55;;;;;;;;;;5021310;28;20252;-71
2021/04/03 12:05:20;;;;;;;18.50;3.92;;;;;;;;;;5013457;28;20190;-70
2021/04/03 12:07:45;;;;;;;18.25;3.47;;;;;;;;;;5024921;28;20355;-69
2021/04/03 12:10:15;;;;;;;19.95;3.40;;;;;;;;;;5016129;28;20228;-70
2021/04/03 12:12:41;;;;;;;13.45;3.20;;;;;;;;;;5026399;28;20208;-70
2021/04/03 12:15:08;;;;;;;14.50;3.42;;;;;;;;;;5014202;28;20218;-70
2021/04/03 12:17:34;;;;;;;18.17;4.68;;;;;;;;;;5024669;28;20203;-70
2021/04/03 12:20:00;;;;;;;19.45;3.58;;;;;;;;;;5017600;28;20190;-70
2021/04/03 12:22:25;;;;;;;15.10;3.70;;;;;;;;;;5022097;28;20217;-70
2021/04/03 12:24:50;;;;;;;18.00;3.20;;;;;;;;;;5012494;28;20245;-70
2021/04/03 12:27:16;;;;;;;20.63;3.60;;;;;;;;;;5022692;28;20195;-70
2021/04/03 12:29:41;;;;;;;20.50;3.47;;;;;;;;;;5023433;28;20173;-71
2021/04/03 12:32:07;;;;;;;14.00;3.65;;;;;;;;;;5015643;28;20204;-71
2021/04/03 12:34:32;;;;;;;14.18;3.60;;;;;;;;;;5023327;28;20178;-71
2021/04/03 12:36:58;;;;;;;15.98;4.07;;;;;;;;;;5014383;28;20186;-71
2021/04/03 12:39:24;;;;;;;13.57;3.53;;;;;;;;;;5024946;28;20839;-71
2021/04/03 12:41:49;;;;;;;17.75;3.50;;;;;;;;;;5016328;28;20229;-71
2021/04/03 12:44:14;;;;;;;16.27;3.47;;;;;;;;;;5025972;28;20184;-71
2021/04/03 12:46:39;;;;;;;14.95;3.17;;;;;;;;;;5018081;28;20590;-71
2021/04/03 12:49:05;;;;;;;16.75;3.08;;;;;;;;;;5027034;28;20222;-70
2021/04/03 12:51:31;;;;;;;13.35;3.38;;;;;;;;;;5019867;28;20588;-69
2021/04/03 12:53:56;;;;;;;14.30;3.30;;;;;;;;;;5026045;28;20189;-70
2021/04/03 12:56:22;;;;;;;17.73;4.15;;;;;;;;;;5019503;28;20273;-70
2021/04/03 12:58:47;;;;;;;10.10;2.60;;;;;;;;;;5028980;28;20715;-70
2021/04/03 13:01:13;;;;;;;13.10;3.35;;;;;;;;;;5025270;28;20243;-70
2021/04/03 13:03:39;;;;;;;10.50;2.40;;;;;;;;;;5015558;28;20232;-70
2021/04/03 13:06:05;;;;;;;15.82;3.40;;;;;;;;;;5027609;28;20193;-70
2021/04/03 13:08:30;;;;;;;17.27;3.85;;;;;;;;;;5020631;28;20190;-71
2021/04/03 13:10:55;;;;;;;18.80;3.30;;;;;;;;;;5027553;28;20703;-71
2021/04/03 13:13:21;;;;;;;13.82;3.03;;;;;;;;;;5021090;28;20189;-71
2021/04/03 13:15:46;;;;;;;12.00;3.10;;;;;;;;;;5027869;28;20272;-71
2021/04/03 13:18:12;;;;;;;12.88;3.03;;;;;;;;;;5018265;28;20206;-71
2021/04/03 13:20:37;;;;;;;12.82;3.70;;;;;;;;;;5027649;28;20182;-70
2021/04/03 13:23:05;;;;;;;13.30;2.90;;;;;;;;;;5017508;28;20240;-70
2021/04/03 13:25:30;;;;;;;15.77;3.42;;;;;;;;;;5027175;28;20193;-70
2021/04/03 13:27:56;;;;;;;19.02;3.97;;;;;;;;;;5021013;28;20193;-70
2021/04/03 13:30:21;;;;;;;19.17;3.28;;;;;;;;;;5025801;28;20217;-70
2021/04/03 13:32:47;;;;;;;13.25;3.33;;;;;;;;;;5032460;28;20271;-70
2021/04/03 13:35:13;;;;;;;14.50;3.15;;;;;;;;;;5020779;28;20201;-70
2021/04/03 13:37:38;;;;;;;14.57;3.88;;;;;;;;;;5029988;28;20192;-70
2021/04/03 13:40:04;;;;;;;14.50;2.90;;;;;;;;;;5024437;28;20189;-70
2021/04/03 13:42:30;;;;;;;17.50;3.28;;;;;;;;;;5032715;28;20724;-70
2021/04/03 13:44:55;;;;;;;17.90;3.08;;;;;;;;;;5021092;28;20190;-71
2021/04/03 13:47:20;;;;;;;17.67;3.65;;;;;;;;;;5029755;28;20187;-71
2021/04/03 13:49:46;;;;;;;22.15;4.28;;;;;;;;;;5022273;28;20236;-70
2021/04/03 13:52:11;;;;;;;15.55;3.63;;;;;;;;;;5030338;28;20189;-71
2021/04/03 13:54:37;;;;;;;18.60;4.10;;;;;;;;;;5022712;28;20200;-70
2021/04/03 13:57:02;;;;;;;19.38;3.53;;;;;;;;;;5030167;28;20224;-70
2021/04/03 13:59:28;;;;;;;20.42;3.75;;;;;;;;;;5030232;28;20193;-70
2021/04/03 14:01:53;;;;;;;15.60;3.13;;;;;;;;;;5023421;28;20206;-70
2021/04/03 14:04:19;;;;;;;14.63;3.10;;;;;;;;;;5031755;28;20217;-70
2021/04/03 14:06:44;;;;;;;18.20;3.38;;;;;;;;;;5021459;28;20193;-70
2021/04/03 14:09:10;;;;;;;15.10;3.50;;;;;;;;;;5031775;28;20276;-70
2021/04/03 14:11:35;;;;;;;18.65;3.53;;;;;;;;;;5021598;28;20980;-70
2021/04/03 14:14:00;;;;;;;12.82;2.85;;;;;;;;;;5029619;28;20219;-70
2021/04/03 14:16:26;;;;;;;18.23;3.20;;;;;;;;;;5021288;28;20186;-70
2021/04/03 14:18:51;;;;;;;19.08;3.38;;;;;;;;;;5030759;28;20193;-70
2021/04/03 14:21:16;;;;;;;18.02;3.65;;;;;;;;;;5019179;28;20332;-70
2021/04/03 14:23:42;;;;;;;20.05;3.78;;;;;;;;;;5031443;28;20660;-70
2021/04/03 14:26:07;;;;;;;14.50;3.33;;;;;;;;;;5020369;28;20676;-69
2021/04/03 14:28:32;;;;;;;18.83;4.07;;;;;;;;;;5031337;28;20189;-69
2021/04/03 14:30:58;;;;;;;12.85;3.55;;;;;;;;;;5031059;28;20204;-70
2021/04/03 14:33:24;;;;;;;18.00;3.42;;;;;;;;;;5021427;28;20225;-70